Brynmawr, United Kingdom
Current Conditions -  °F | °C
As of 2:20 PM on Sunday 21 Dec 2014 (Local Time) from EGFF Reporting Station
Overcast Overcast  
Wind Chill: 50°   Ceiling: 400
Heat Index: 50°   Visibility: 6mi
Dew Point: 50°   Wind: 20mph
Humidity: 100%   Direction: 260°W
Pressure: 30.27"   Gusts: NA
Location:  51.8°N, 3.18°W
Report Text: EGFF 211420Z AUTO 26017KT 9999 BKN004 OVC016 10/10 Q1025
Loading
Personal Weather Stations






























Interactive Weather Map New forecast layout! Learn more

10-Day Weather Forecast

Advertisements
Track Severe Weather on mobile